Time;durP1;ratioP1;P1;durP2;ratioP2;P2;SDS_P1;SDS_P2;PMS_P1;PMS_P2;Temp;Humidity;BMP_temperature;BMP_pressure;BME280_temperature;BME280_humidity;BME280_pressure;Samples;Min_cycle;Max_cycle;Signal;HPM_P1;HPM_P2
2024/01/15 00:01:31;;;;;;;6.30;2.47;;;;;;;1.17;100.00;100813.75;5036910;28;20045;-52
2024/01/15 00:03:59;;;;;;;7.35;2.20;;;;;;;1.17;100.00;100813.75;5042054;28;20144;-51
2024/01/15 00:06:28;;;;;;;6.32;2.97;;;;;;;1.15;100.00;100805.03;5035355;28;20052;-51
2024/01/15 00:08:58;;;;;;;6.93;2.75;;;;;;;1.12;100.00;100802.88;5047804;28;20064;-50
2024/01/15 00:11:25;;;;;;;8.07;2.28;;;;;;;1.10;100.00;100791.44;5048285;28;20053;-52
2024/01/15 00:13:52;;;;;;;8.10;2.85;;;;;;;1.11;100.00;100796.59;5048175;28;20406;-50
2024/01/15 00:16:20;;;;;;;9.02;3.15;;;;;;;1.12;100.00;100800.16;5046443;28;20553;-49
2024/01/15 00:18:47;;;;;;;8.70;2.95;;;;;;;1.12;100.00;100797.41;5047967;28;20048;-48
2024/01/15 00:21:15;;;;;;;7.78;2.70;;;;;;;1.09;100.00;100804.25;5047839;28;20044;-49
2024/01/15 00:23:44;;;;;;;6.70;3.20;;;;;;;1.08;100.00;100790.91;5047623;28;20056;-47
2024/01/15 00:26:12;;;;;;;9.60;2.85;;;;;;;1.05;100.00;100792.28;5048016;28;20057;-49
2024/01/15 00:28:39;;;;;;;8.32;2.65;;;;;;;1.06;100.00;100795.84;5028340;28;20045;-50
2024/01/15 00:31:06;;;;;;;6.72;2.63;;;;;;;1.04;100.00;100800.72;5048474;28;20056;-47
2024/01/15 00:33:34;;;;;;;15.45;4.95;;;;;;;1.05;100.00;100791.47;5034170;28;20515;-51
2024/01/15 00:36:01;;;;;;;10.68;2.72;;;;;;;1.05;100.00;100797.75;5048217;28;20075;-49
2024/01/15 00:38:29;;;;;;;10.63;3.45;;;;;;;1.04;100.00;100798.81;5048028;28;20045;-49
2024/01/15 00:40:56;;;;;;;10.20;2.17;;;;;;;1.02;100.00;100792.84;5048023;28;20452;-50
2024/01/15 00:43:23;;;;;;;11.75;3.30;;;;;;;1.00;100.00;100794.22;5048113;28;20044;-50
2024/01/15 00:45:50;;;;;;;8.73;4.43;;;;;;;0.94;100.00;100779.81;5047263;28;20053;-51
2024/01/15 00:48:20;;;;;;;7.78;2.85;;;;;;;0.91;100.00;100779.53;5047216;28;20041;-48
2024/01/15 00:50:48;;;;;;;13.13;2.88;;;;;;;0.88;100.00;100780.09;5036049;28;20046;-46
2024/01/15 00:53:15;;;;;;;11.40;2.97;;;;;;;0.87;100.00;100784.75;5046158;28;20048;-49
2024/01/15 00:55:42;;;;;;;8.88;2.70;;;;;;;0.86;100.00;100780.41;5047405;28;20071;-49
2024/01/15 00:58:10;;;;;;;9.10;3.05;;;;;;;0.83;100.00;100772.78;5034104;28;20056;-49
2024/01/15 01:00:37;;;;;;;5.82;2.40;;;;;;;0.82;100.00;100773.06;5047797;28;20612;-50
2024/01/15 01:03:04;;;;;;;6.45;2.65;;;;;;;0.81;100.00;100768.69;5029363;28;20044;-48
2024/01/15 01:05:34;;;;;;;4.95;2.50;;;;;;;0.81;100.00;100772.25;5030306;28;20048;-46
2024/01/15 01:08:01;;;;;;;5.40;2.75;;;;;;;0.83;100.00;100771.94;5046959;28;20071;-49
2024/01/15 01:10:29;;;;;;;5.00;2.33;;;;;;;0.81;100.00;100772.25;5034619;28;20057;-48
2024/01/15 01:12:56;;;;;;;8.95;2.60;;;;;;;0.82;100.00;100764.88;5038182;28;20052;-49
2024/01/15 01:15:24;;;;;;;10.27;3.65;;;;;;;0.79;100.00;100760.81;5046461;28;20546;-48
2024/01/15 01:17:51;;;;;;;5.55;3.22;;;;;;;0.80;100.00;100761.59;5021892;28;20056;-52
2024/01/15 01:20:19;;;;;;;6.00;2.60;;;;;;;0.80;100.00;100767.06;5016435;28;20050;-52
2024/01/15 01:22:47;;;;;;;7.72;2.42;;;;;;;0.78;100.00;100763.81;5045220;28;20455;-47
2024/01/15 01:25:15;;;;;;;6.13;2.38;;;;;;;0.75;100.00;100764.34;5037526;28;20048;-48
2024/01/15 01:27:43;;;;;;;5.47;2.75;;;;;;;0.75;100.00;100753.47;5047546;28;20080;-51
2024/01/15 01:30:10;;;;;;;6.72;2.70;;;;;;;0.74;100.00;100752.66;5047738;28;20045;-51
2024/01/15 01:32:38;;;;;;;8.98;2.33;;;;;;;0.72;100.00;100748.56;5048166;28;20053;-52
2024/01/15 01:35:05;;;;;;;11.30;2.63;;;;;;;0.72;100.00;100754.00;5051357;28;20045;-48
2024/01/15 01:37:35;;;;;;;7.40;2.72;;;;;;;0.69;100.00;100743.69;5046360;28;20057;-46
2024/01/15 01:40:03;;;;;;;6.95;2.05;;;;;;;0.68;100.00;100742.06;5043452;28;20049;-48
2024/01/15 01:42:31;;;;;;;6.95;2.35;;;;;;;0.67;100.00;100748.59;5050820;28;20053;-52
2024/01/15 01:44:58;;;;;;;8.82;2.95;;;;;;;0.64;100.00;100735.56;5050793;28;20056;-49
2024/01/15 01:47:26;;;;;;;6.70;2.50;;;;;;;0.63;100.00;100739.38;5051468;28;20045;-48
2024/01/15 01:49:54;;;;;;;6.03;2.20;;;;;;;0.61;100.00;100743.16;5032640;28;20052;-51
2024/01/15 01:52:22;;;;;;;6.45;2.55;;;;;;;0.61;100.00;100747.78;5051050;28;20049;-47
2024/01/15 01:54:50;;;;;;;9.55;2.35;;;;;;;0.59;100.00;100739.91;5051027;28;20049;-45
2024/01/15 01:57:19;;;;;;;13.38;2.92;;;;;;;0.59;100.00;100736.38;5042509;28;20049;-51
2024/01/15 01:59:47;;;;;;;5.90;2.15;;;;;;;0.60;100.00;100743.47;5050562;28;20061;-50
2024/01/15 02:02:16;;;;;;;9.63;2.13;;;;;;;0.57;100.00;100742.13;5050897;28;20049;-51
2024/01/15 02:04:44;;;;;;;8.80;2.08;;;;;;;0.57;100.00;100747.56;5050769;28;20061;-48
2024/01/15 02:07:11;;;;;;;9.95;1.90;;;;;;;0.56;100.00;100737.75;5050742;28;20045;-50
2024/01/15 02:09:39;;;;;;;6.03;2.03;;;;;;;0.55;100.00;100744.31;5049237;28;20057;-49
2024/01/15 02:12:06;;;;;;;6.38;2.25;;;;;;;0.55;100.00;100736.13;5051143;28;20057;-47
2024/01/15 02:14:34;;;;;;;5.00;2.22;;;;;;;0.55;100.00;100730.69;5050023;28;20041;-52
2024/01/15 02:17:01;;;;;;;8.35;2.22;;;;;;;0.55;100.00;100721.69;5049448;28;20395;-55
2024/01/15 02:19:29;;;;;;;6.28;1.83;;;;;;;0.52;100.00;100728.53;5050287;28;20060;-49
2024/01/15 02:21:56;;;;;;;7.15;1.42;;;;;;;0.51;100.00;100737.78;5050368;28;20049;-51
2024/01/15 02:24:23;;;;;;;3.88;1.67;;;;;;;0.50;100.00;100730.69;5050201;28;20052;-47
2024/01/15 02:26:51;;;;;;;6.75;1.88;;;;;;;0.48;100.00;100727.44;5050734;28;20063;-47
2024/01/15 02:29:19;;;;;;;5.43;1.77;;;;;;;0.48;100.00;100723.88;5043004;28;20042;-45
2024/01/15 02:31:46;;;;;;;6.95;1.88;;;;;;;0.49;100.00;100729.06;5044704;28;20061;-47
2024/01/15 02:34:14;;;;;;;7.35;2.03;;;;;;;0.50;100.00;100730.69;5032269;28;20049;-48
2024/01/15 02:36:42;;;;;;;7.20;4.35;;;;;;;0.50;100.00;100725.25;5036685;28;20116;-50
2024/01/15 02:39:09;;;;;;;6.80;1.65;;;;;;;0.48;100.00;100726.59;5042189;28;20041;-47
2024/01/15 02:41:37;;;;;;;4.13;1.48;;;;;;;0.48;100.00;100716.53;5045821;28;20053;-47
2024/01/15 02:44:05;;;;;;;3.05;1.00;;;;;;;0.47;100.00;100720.38;5047891;28;20069;-52
2024/01/15 02:46:33;;;;;;;4.97;2.25;;;;;;;0.48;100.00;100715.72;5049687;28;20060;-46
2024/01/15 02:49:00;;;;;;;7.20;2.08;;;;;;;0.49;100.00;100720.09;5041162;28;20064;-45
2024/01/15 02:51:27;;;;;;;8.35;2.40;;;;;;;0.47;100.00;100725.00;5046080;28;20049;-49
2024/01/15 02:53:55;;;;;;;3.63;1.48;;;;;;;0.48;100.00;100724.72;5041003;28;20056;-47
2024/01/15 02:56:22;;;;;;;2.92;1.73;;;;;;;0.47;100.00;100723.09;5033505;28;20407;-46
2024/01/15 02:58:49;;;;;;;10.05;2.05;;;;;;;0.47;100.00;100719.56;5049717;28;20049;-51
2024/01/15 03:01:19;;;;;;;8.38;1.63;;;;;;;0.46;100.00;100718.72;5049978;28;20049;-47
2024/01/15 03:03:47;;;;;;;9.88;1.88;;;;;;;0.47;100.00;100722.28;5038636;28;20053;-46
2024/01/15 03:06:14;;;;;;;4.20;1.70;;;;;;;0.47;100.00;100731.28;5029692;28;20061;-50
2024/01/15 03:08:42;;;;;;;6.20;1.90;;;;;;;0.47;100.00;100725.81;5038017;28;20049;-46
2024/01/15 03:11:09;;;;;;;8.80;2.17;;;;;;;0.46;100.00;100734.25;5047916;28;20561;-50
2024/01/15 03:13:37;;;;;;;4.20;1.65;;;;;;;0.46;100.00;100735.06;5049253;28;20123;-53
2024/01/15 03:16:06;;;;;;;7.85;1.98;;;;;;;0.45;100.00;100725.25;5040572;28;20068;-46
2024/01/15 03:18:33;;;;;;;5.88;1.58;;;;;;;0.45;100.00;100719.81;5048550;28;20053;-48
2024/01/15 03:21:01;;;;;;;3.40;1.50;;;;;;;0.44;100.00;100718.19;5035854;28;20049;-48
2024/01/15 03:23:28;;;;;;;4.75;1.40;;;;;;;0.44;100.00;100725.56;5048938;28;20052;-48
2024/01/15 03:25:56;;;;;;;6.95;1.98;;;;;;;0.42;100.00;100728.56;5049832;28;20564;-53
2024/01/15 03:28:24;;;;;;;2.75;1.25;;;;;;;0.42;100.00;100728.56;5030630;28;20060;-51
2024/01/15 03:30:51;;;;;;;3.05;1.35;;;;;;;0.41;100.00;100726.94;5030667;28;20061;-49
2024/01/15 03:33:18;;;;;;;3.30;1.27;;;;;;;0.40;100.00;100733.44;5031211;28;20045;-51
2024/01/15 03:35:46;;;;;;;5.00;1.77;;;;;;;0.39;100.00;100729.13;5043433;28;20056;-50
2024/01/15 03:38:13;;;;;;;6.03;1.58;;;;;;;0.38;100.00;100727.47;5046990;28;20055;-46
2024/01/15 03:40:41;;;;;;;5.45;1.80;;;;;;;0.37;100.00;100722.31;5047421;28;20053;-49
2024/01/15 03:43:10;;;;;;;8.75;2.20;;;;;;;0.36;100.00;100721.50;5049250;28;20044;-48
2024/01/15 03:45:37;;;;;;;8.65;1.67;;;;;;;0.35;100.00;100728.03;5048129;28;20078;-50
2024/01/15 03:48:05;;;;;;;4.63;1.73;;;;;;;0.33;100.00;100724.78;5048359;28;20049;-51
2024/01/15 03:50:32;;;;;;;4.88;2.63;;;;;;;0.33;100.00;100713.88;5047641;28;20099;-48
2024/01/15 03:52:59;;;;;;;6.40;2.00;;;;;;;0.32;100.00;100722.34;5033474;28;20041;-45
2024/01/15 03:55:27;;;;;;;1.50;0.95;;;;;;;0.28;100.00;100713.91;5048201;28;20049;-49
2024/01/15 03:57:54;;;;;;;7.22;1.60;;;;;;;0.25;100.00;100717.19;5047928;28;20045;-51
2024/01/15 04:00:22;;;;;;;4.30;1.30;;;;;;;0.25;100.00;100711.72;5047850;28;20053;-50
2024/01/15 04:02:49;;;;;;;8.50;1.35;;;;;;;0.24;100.00;100703.88;5047960;28;20048;-49
2024/01/15 04:05:17;;;;;;;13.68;2.33;;;;;;;0.21;100.00;100694.34;5048079;28;20052;-51
2024/01/15 04:07:44;;;;;;;4.75;1.25;;;;;;;0.20;100.00;100700.88;5048370;28;20045;-52
2024/01/15 04:10:11;;;;;;;5.63;2.00;;;;;;;0.20;100.00;100695.44;5047284;28;20060;-48
2024/01/15 04:12:39;;;;;;;5.07;1.20;;;;;;;0.18;100.00;100708.50;5028469;28;20049;-51
2024/01/15 04:15:06;;;;;;;4.35;2.03;;;;;;;0.18;100.00;100700.34;5047449;28;20044;-47
2024/01/15 04:17:34;;;;;;;5.03;1.55;;;;;;;0.17;100.00;100708.75;5047873;28;20414;-50
2024/01/15 04:20:01;;;;;;;3.88;1.25;;;;;;;0.16;100.00;100718.84;5047524;28;20055;-51
2024/01/15 04:22:28;;;;;;;5.38;1.63;;;;;;;0.15;100.00;100706.34;5046729;28;20049;-45
2024/01/15 04:24:56;;;;;;;13.45;1.52;;;;;;;0.15;100.00;100711.78;5047803;28;20052;-48
2024/01/15 04:27:23;;;;;;;6.10;1.95;;;;;;;0.13;100.00;100707.69;5047015;28;20049;-48
2024/01/15 04:29:50;;;;;;;8.10;2.08;;;;;;;0.12;100.00;100715.06;5047569;28;20059;-49
2024/01/15 04:32:18;;;;;;;10.48;2.05;;;;;;;0.11;100.00;100718.84;5047925;28;20048;-53
2024/01/15 04:34:45;;;;;;;2.63;1.20;;;;;;;0.12;100.00;100733.28;5046904;28;20057;-48
2024/01/15 04:37:14;;;;;;;6.35;1.77;;;;;;;0.08;100.00;100730.28;5033828;28;20056;-50
2024/01/15 04:39:41;;;;;;;10.10;1.77;;;;;;;0.06;100.00;100732.47;5047110;28;20049;-50
2024/01/15 04:42:08;;;;;;;2.45;1.10;;;;;;;0.03;100.00;100719.41;5029222;28;20045;-49
2024/01/15 04:44:36;;;;;;;4.78;1.17;;;;;;;-0.01;100.00;100691.97;5048186;28;20151;-48
2024/01/15 04:47:03;;;;;;;2.78;0.88;;;;;;;-0.03;100.00;100687.88;5047574;28;20057;-48
2024/01/15 04:49:30;;;;;;;4.57;1.90;;;;;;;-0.03;100.00;100687.88;5046290;28;20040;-51
2024/01/15 04:51:59;;;;;;;3.50;0.70;;;;;;;-0.05;100.00;100698.22;5047438;28;20061;-48
2024/01/15 04:54:26;;;;;;;6.53;1.38;;;;;;;-0.03;100.00;100709.66;5047301;28;20406;-50
2024/01/15 04:56:53;;;;;;;5.57;2.20;;;;;;;-0.03;100.00;100720.53;5046005;28;20041;-51
2024/01/15 04:59:21;;;;;;;5.13;2.13;;;;;;;-0.03;100.00;100726.78;5043865;28;20041;-51
2024/01/15 05:01:48;;;;;;;9.35;1.42;;;;;;;-0.06;100.00;100726.53;5038957;28;20050;-50
2024/01/15 05:04:16;;;;;;;4.32;1.10;;;;;;;-0.06;100.00;100716.47;5042657;28;20051;-50
2024/01/15 05:06:43;;;;;;;2.40;1.02;;;;;;;-0.09;100.00;100699.88;5041750;28;20053;-50
2024/01/15 05:09:11;;;;;;;7.32;1.20;;;;;;;-0.10;100.00;100715.38;5049580;28;20060;-51
2024/01/15 05:11:39;;;;;;;3.58;1.00;;;;;;;-0.08;100.00;100720.56;5051238;28;20056;-48
2024/01/15 05:14:07;;;;;;;4.53;1.52;;;;;;;-0.10;100.00;100726.25;5044977;28;20059;-53
2024/01/15 05:16:34;;;;;;;13.10;2.40;;;;;;;-0.12;100.00;100730.34;5045719;28;20049;-49
2024/01/15 05:19:01;;;;;;;4.35;1.10;;;;;;;-0.12;100.00;100733.88;5020937;28;20049;-49
2024/01/15 05:21:29;;;;;;;3.22;0.95;;;;;;;-0.13;100.00;100745.03;5043211;28;20060;-51
2024/01/15 05:23:56;;;;;;;5.20;0.90;;;;;;;-0.15;100.00;100753.47;5051485;28;20049;-49
2024/01/15 05:26:23;;;;;;;3.63;1.05;;;;;;;-0.16;100.00;100742.88;5048911;28;20041;-51
2024/01/15 05:28:51;;;;;;;3.40;0.73;;;;;;;-0.17;100.00;100733.06;5009170;28;20045;-47
2024/01/15 05:31:19;;;;;;;4.22;0.90;;;;;;;-0.17;100.00;100733.06;5037977;28;20521;-49
2024/01/15 05:33:47;;;;;;;8.05;1.33;;;;;;;-0.19;100.00;100725.19;5043592;28;20041;-48
2024/01/15 05:36:14;;;;;;;3.40;1.13;;;;;;;-0.21;100.00;100718.38;5048853;28;20053;-49
2024/01/15 05:38:42;;;;;;;8.32;1.02;;;;;;;-0.24;100.00;100718.94;5031226;28;20071;-49
2024/01/15 05:41:09;;;;;;;4.60;0.93;;;;;;;-0.24;100.00;100732.56;5050317;28;20037;-50
2024/01/15 05:43:37;;;;;;;2.42;0.93;;;;;;;-0.25;100.00;100736.34;5047591;28;20060;-52
2024/01/15 05:46:04;;;;;;;4.38;0.98;;;;;;;-0.25;100.00;100744.50;5049463;28;20049;-45
2024/01/15 05:48:32;;;;;;;6.32;1.33;;;;;;;-0.26;100.00;100753.75;5044571;28;20060;-51
2024/01/15 05:50:59;;;;;;;2.90;1.05;;;;;;;-0.29;100.00;100754.31;5050301;28;20048;-49
2024/01/15 05:53:26;;;;;;;3.42;0.90;;;;;;;-0.31;100.00;100761.91;5043910;28;20088;-48
2024/01/15 05:55:55;;;;;;;4.20;1.23;;;;;;;-0.33;100.00;100747.78;5040551;28;20057;-47
2024/01/15 05:58:23;;;;;;;5.00;1.02;;;;;;;-0.35;100.00;100745.34;5038872;28;20045;-50
2024/01/15 06:00:51;;;;;;;7.28;1.33;;;;;;;-0.34;100.00;100743.41;5044190;28;20061;-49
2024/01/15 06:03:19;;;;;;;6.65;1.13;;;;;;;-0.34;100.00;100740.69;5042792;28;20049;-51
2024/01/15 06:05:46;;;;;;;7.93;1.85;;;;;;;-0.34;100.00;100719.75;5046307;28;20080;-49
2024/01/15 06:08:14;;;;;;;5.10;1.98;;;;;;;-0.33;100.00;100726.03;5048821;28;20037;-47
2024/01/15 06:10:42;;;;;;;3.67;1.67;;;;;;;-0.35;100.00;100722.75;5029579;28;20107;-51
2024/01/15 06:13:09;;;;;;;4.70;1.10;;;;;;;-0.37;100.00;100730.41;5042655;28;20033;-51
2024/01/15 06:15:36;;;;;;;5.60;1.55;;;;;;;-0.40;100.00;100745.34;5040005;28;20052;-49
2024/01/15 06:18:04;;;;;;;3.78;1.10;;;;;;;-0.43;100.00;100748.63;5047392;28;20066;-48
2024/01/15 06:20:32;;;;;;;6.00;1.20;;;;;;;-0.45;100.00;100752.69;5028008;28;20230;-48
2024/01/15 06:23:00;;;;;;;13.82;1.63;;;;;;;-0.46;100.00;100761.94;5049732;28;20049;-49
2024/01/15 06:25:27;;;;;;;10.85;1.77;;;;;;;-0.49;100.00;100763.28;5049216;28;20051;-50
2024/01/15 06:27:54;;;;;;;6.45;1.35;;;;;;;-0.51;100.00;100761.94;5049654;28;20049;-50
2024/01/15 06:30:22;;;;;;;4.38;1.05;;;;;;;-0.52;100.00;100758.38;5045144;28;20479;-52
2024/01/15 06:32:51;;;;;;;3.38;1.33;;;;;;;-0.54;100.00;100751.59;5044362;28;20047;-49
2024/01/15 06:35:18;;;;;;;2.17;1.48;;;;;;;-0.56;100.00;100737.47;5048829;28;20045;-53
2024/01/15 06:37:49;;;;;;;4.40;1.48;;;;;;;-0.57;100.00;100733.91;5048950;28;20049;-48
2024/01/15 06:40:16;;;;;;;6.13;1.27;;;;;;;-0.59;100.00;100738.00;5049684;28;20055;-47
2024/01/15 06:42:44;;;;;;;7.15;1.75;;;;;;;-0.59;100.00;100738.81;5048820;28;20052;-50
2024/01/15 06:45:11;;;;;;;5.88;1.27;;;;;;;-0.58;100.00;100739.66;5049885;28;20060;-48
2024/01/15 06:47:38;;;;;;;8.38;1.35;;;;;;;-0.57;100.00;100746.69;5049208;28;20603;-49
2024/01/15 06:50:06;;;;;;;6.45;1.23;;;;;;;-0.57;100.00;100746.69;5037753;28;20064;-51
2024/01/15 06:52:34;;;;;;;4.57;1.15;;;;;;;-0.60;100.00;100756.22;5049166;28;20048;-47
2024/01/15 06:55:01;;;;;;;9.93;1.75;;;;;;;-0.62;100.00;100756.50;5049395;28;20052;-45
2024/01/15 06:57:29;;;;;;;2.13;1.50;;;;;;;-0.65;100.00;100754.31;5048316;28;20128;-47
2024/01/15 06:59:56;;;;;;;7.50;1.60;;;;;;;-0.66;100.00;100752.66;5036703;28;20628;-46
2024/01/15 07:02:23;;;;;;;3.53;1.35;;;;;;;-0.66;100.00;100749.94;5049385;28;20049;-51
2024/01/15 07:04:51;;;;;;;6.38;1.42;;;;;;;-0.66;100.00;100744.50;5042629;28;20067;-48
2024/01/15 07:07:19;;;;;;;5.50;1.40;;;;;;;-0.67;100.00;100742.09;5048826;28;20049;-48
2024/01/15 07:09:46;;;;;;;4.30;1.17;;;;;;;-0.68;100.00;100751.31;5034143;28;20068;-50
2024/01/15 07:12:13;;;;;;;6.40;1.77;;;;;;;-0.67;100.00;100756.50;5047897;28;20107;-46
2024/01/15 07:14:41;;;;;;;5.47;1.15;;;;;;;-0.70;100.00;100757.03;5041060;28;20436;-48
2024/01/15 07:17:08;;;;;;;8.55;1.75;;;;;;;-0.69;100.00;100752.41;5025371;28;20493;-45
2024/01/15 07:19:36;;;;;;;7.47;1.50;;;;;;;-0.71;100.00;100755.38;5048538;28;20530;-47
2024/01/15 07:22:04;;;;;;;4.68;1.60;;;;;;;-0.74;100.00;100753.22;5049160;28;20068;-49
2024/01/15 07:24:34;;;;;;;5.43;1.27;;;;;;;-0.74;100.00;100764.06;5048795;28;20057;-49
2024/01/15 07:27:01;;;;;;;3.17;1.60;;;;;;;-0.73;100.00;100779.31;5043067;28;20049;-49
2024/01/15 07:29:28;;;;;;;13.40;2.33;;;;;;;-0.73;100.00;100786.66;5048458;28;20049;-45
2024/01/15 07:31:56;;;;;;;6.35;1.20;;;;;;;-0.73;100.00;100782.03;5046845;28;20079;-46
2024/01/15 07:34:23;;;;;;;9.93;1.65;;;;;;;-0.75;100.00;100786.94;5049526;28;20045;-47
2024/01/15 07:36:51;;;;;;;8.80;1.75;;;;;;;-0.74;100.00;100779.56;5048943;28;20511;-46
2024/01/15 07:39:18;;;;;;;2.85;1.23;;;;;;;-0.74;100.00;100796.69;5046168;28;20414;-52
2024/01/15 07:41:46;;;;;;;6.78;1.80;;;;;;;-0.74;100.00;100788.53;5048818;28;20050;-50
2024/01/15 07:44:14;;;;;;;5.72;1.27;;;;;;;-0.74;100.00;100791.25;5049555;28;20051;-50
2024/01/15 07:46:48;;;;;;;4.82;1.60;;;;;;;-0.76;100.00;100793.44;5049926;28;20380;-49
2024/01/15 07:49:16;;;;;;;3.75;1.40;;;;;;;-0.76;100.00;100779.84;5049755;28;20430;-48
2024/01/15 07:51:44;;;;;;;2.60;0.90;;;;;;;-0.76;100.00;100785.28;5049246;28;20053;-53
2024/01/15 07:54:12;;;;;;;5.03;1.13;;;;;;;-0.76;100.00;100793.44;5049561;28;20057;-50
2024/01/15 07:56:58;;;;;;;9.65;1.08;;;;;;;-0.78;100.00;100787.47;5029982;28;20399;-47
2024/01/15 07:59:27;;;;;;;4.80;1.40;;;;;;;-0.79;100.00;100793.97;5042948;28;20065;-47
2024/01/15 08:01:54;;;;;;;2.97;1.30;;;;;;;-0.79;100.00;100798.59;5038371;28;20045;-47
2024/01/15 08:04:21;;;;;;;6.47;1.88;;;;;;;-0.78;100.00;100795.63;5048859;28;20056;-48
2024/01/15 08:06:49;;;;;;;6.22;1.30;;;;;;;-0.78;100.00;100802.94;5040163;28;20053;-47
2024/01/15 08:09:17;;;;;;;4.75;1.35;;;;;;;-0.77;100.00;100807.31;5045595;28;20059;-47
2024/01/15 08:11:44;;;;;;;2.58;1.13;;;;;;;-0.77;100.00;100810.81;5031013;28;20395;-47
2024/01/15 08:14:13;;;;;;;7.03;2.13;;;;;;;-0.76;100.00;100808.94;5048517;28;20056;-46
2024/01/15 08:16:40;;;;;;;3.38;1.17;;;;;;;-0.76;100.00;100807.03;5030957;28;20053;-47
2024/01/15 08:19:07;;;;;;;8.80;1.60;;;;;;;-0.76;100.00;100798.88;5021662;28;20052;-47
2024/01/15 08:21:35;;;;;;;6.38;1.20;;;;;;;-0.75;100.00;100808.69;5048657;28;20079;-51
2024/01/15 08:24:03;;;;;;;2.97;0.90;;;;;;;-0.75;100.00;100789.66;5048673;28;20044;-51
2024/01/15 08:26:30;;;;;;;3.97;1.60;;;;;;;-0.75;100.00;100800.53;5043991;28;20041;-48
2024/01/15 08:28:58;;;;;;;3.40;1.00;;;;;;;-0.74;100.00;100802.13;5047611;28;20409;-51
2024/01/15 08:31:26;;;;;;;3.25;1.00;;;;;;;-0.73;100.00;100809.22;5048175;28;20059;-53
2024/01/15 08:33:53;;;;;;;7.13;1.65;;;;;;;-0.74;100.00;100818.44;5045462;28;20041;-52
2024/01/15 08:36:21;;;;;;;7.32;1.20;;;;;;;-0.74;100.00;100825.78;5048531;28;20387;-53
2024/01/15 08:38:48;;;;;;;5.55;1.17;;;;;;;-0.74;100.00;100818.44;5042304;28;20411;-51
2024/01/15 08:41:16;;;;;;;3.33;1.30;;;;;;;-0.77;100.00;100816.25;5041707;28;20529;-54
2024/01/15 08:43:43;;;;;;;4.28;1.70;;;;;;;-0.77;100.00;100818.97;5035248;28;20053;-51
2024/01/15 08:46:11;;;;;;;5.93;1.60;;;;;;;-0.77;100.00;100813.53;5047890;28;20410;-51
2024/01/15 08:48:39;;;;;;;5.75;1.73;;;;;;;-0.74;100.00;100815.72;5047513;28;20076;-52
2024/01/15 08:51:07;;;;;;;8.27;2.22;;;;;;;-0.72;100.00;100810.03;5030079;28;20388;-49
2024/01/15 08:53:35;;;;;;;11.82;1.73;;;;;;;-0.71;100.00;100812.47;5047166;28;20056;-48
2024/01/15 08:56:03;;;;;;;4.70;1.88;;;;;;;-0.68;100.00;100811.94;5047638;28;20414;-49
2024/01/15 08:58:30;;;;;;;5.28;1.98;;;;;;;-0.67;100.00;100821.75;5039290;28;20419;-52
2024/01/15 09:00:58;;;;;;;12.90;2.08;;;;;;;-0.65;100.00;100822.28;5029559;28;20049;-51
2024/01/15 09:03:25;;;;;;;11.45;1.60;;;;;;;-0.65;100.00;100830.44;5029143;28;20499;-51
2024/01/15 09:05:53;;;;;;;7.35;1.75;;;;;;;-0.63;100.00;100825.53;5047208;28;20079;-52
2024/01/15 09:08:20;;;;;;;7.30;1.75;;;;;;;-0.59;100.00;100830.44;5030129;28;20037;-50
2024/01/15 09:10:48;;;;;;;4.93;1.40;;;;;;;-0.57;100.00;100830.97;5047942;28;20060;-52
2024/01/15 09:13:16;;;;;;;6.85;1.98;;;;;;;-0.54;100.00;100841.31;5048019;28;20052;-48
2024/01/15 09:15:47;;;;;;;4.50;1.30;;;;;;;-0.51;100.00;100840.78;5033961;28;20057;-50
2024/01/15 09:18:14;;;;;;;5.60;1.17;;;;;;;-0.50;100.00;100840.50;5048251;28;20053;-50
2024/01/15 09:20:42;;;;;;;6.72;2.00;;;;;;;-0.47;100.00;100831.00;5047950;28;20132;-52
2024/01/15 09:23:09;;;;;;;5.13;2.00;;;;;;;-0.44;100.00;100834.00;5048322;28;20052;-50
2024/01/15 09:25:36;;;;;;;4.72;1.58;;;;;;;-0.42;100.00;100825.56;5047612;28;20399;-51
2024/01/15 09:28:04;;;;;;;5.80;1.90;;;;;;;-0.37;100.00;100836.47;5048530;28;20060;-51
2024/01/15 09:30:31;;;;;;;7.70;2.17;;;;;;;-0.34;100.00;100835.91;5044018;28;20411;-53
2024/01/15 09:32:59;;;;;;;6.72;2.00;;;;;;;-0.31;100.00;100846.25;5039213;28;20052;-50
2024/01/15 09:35:26;;;;;;;12.25;1.42;;;;;;;-0.29;100.00;100852.25;5047582;28;20049;-53
2024/01/15 09:37:53;;;;;;;8.15;2.30;;;;;;;-0.27;100.00;100860.94;5030245;28;20053;-50
2024/01/15 09:40:21;;;;;;;7.35;1.85;;;;;;;-0.25;100.00;100853.31;5034352;28;20041;-52
2024/01/15 09:42:50;;;;;;;6.05;1.80;;;;;;;-0.23;100.00;100856.59;5030384;28;20419;-50
2024/01/15 09:45:18;;;;;;;9.15;1.60;;;;;;;-0.20;100.00;100856.03;5047983;28;20060;-51
2024/01/15 09:47:46;;;;;;;7.15;2.15;;;;;;;-0.18;100.00;100865.56;5048190;28;20095;-51
2024/01/15 09:50:17;;;;;;;6.30;1.17;;;;;;;-0.16;100.00;100846.28;5034657;28;20045;-52
2024/01/15 09:52:45;;;;;;;4.95;1.48;;;;;;;-0.14;100.00;100853.06;5047780;28;20655;-52
2024/01/15 09:55:15;;;;;;;4.35;1.20;;;;;;;-0.11;100.00;100852.50;5037989;28;20045;-49
2024/01/15 09:57:45;;;;;;;7.25;1.33;;;;;;;-0.08;100.00;100851.97;5051038;28;20053;-53
2024/01/15 10:00:17;;;;;;;3.03;1.25;;;;;;;-0.08;100.00;100853.88;5051686;28;20385;-52
2024/01/15 10:02:44;;;;;;;2.65;1.30;;;;;;;-0.08;100.00;100862.06;5051636;28;20080;-51
2024/01/15 10:05:12;;;;;;;7.25;1.50;;;;;;;-0.07;100.00;100860.94;5051212;28;20049;-49
2024/01/15 10:07:40;;;;;;;5.95;1.77;;;;;;;-0.07;100.00;100867.22;5051321;28;20045;-49
2024/01/15 10:10:07;;;;;;;6.10;3.13;;;;;;;-0.05;100.00;100869.66;5045387;28;20067;-48
2024/01/15 10:12:36;;;;;;;6.28;2.13;;;;;;;-0.02;100.00;100869.09;5050936;28;20056;-53
2024/01/15 10:15:10;;;;;;;6.93;2.85;;;;;;;0.02;100.00;100872.13;5051549;28;20044;-51
2024/01/15 10:17:38;;;;;;;10.40;1.83;;;;;;;0.04;100.00;100876.19;5032805;28;20052;-50
2024/01/15 10:20:10;;;;;;;6.35;1.98;;;;;;;0.06;100.00;100865.03;5050848;28;20060;-50
2024/01/15 10:22:43;;;;;;;5.03;1.30;;;;;;;0.08;100.00;100866.38;5050515;28;20044;-47
2024/01/15 10:25:11;;;;;;;8.57;1.85;;;;;;;0.11;100.00;100859.59;5051019;28;20415;-50
2024/01/15 10:27:41;;;;;;;8.48;3.15;;;;;;;0.14;100.00;100859.84;5050690;28;20048;-52
2024/01/15 10:30:13;;;;;;;4.45;1.15;;;;;;;0.18;100.00;100863.69;5050781;28;20052;-50
2024/01/15 10:32:41;;;;;;;3.65;1.65;;;;;;;0.21;100.00;100871.31;5041547;28;20057;-50
2024/01/15 10:35:10;;;;;;;3.10;1.40;;;;;;;0.23;100.00;100863.66;5047056;28;20534;-51
2024/01/15 10:37:37;;;;;;;5.97;1.50;;;;;;;0.25;100.00;100875.09;5040945;28;20404;-53
2024/01/15 10:40:05;;;;;;;5.03;1.52;;;;;;;0.28;100.00;100877.28;5047754;28;20044;-52
2024/01/15 10:42:32;;;;;;;5.95;1.35;;;;;;;0.29;100.00;100873.44;5050345;28;20056;-51
2024/01/15 10:45:00;;;;;;;4.80;1.02;;;;;;;0.30;100.00;100871.53;5050511;28;20053;-52
2024/01/15 10:47:28;;;;;;;5.13;1.70;;;;;;;0.30;100.00;100872.34;5050930;28;20049;-49
2024/01/15 10:49:56;;;;;;;6.20;2.33;;;;;;;0.33;100.00;100881.88;5037578;28;20057;-50
2024/01/15 10:52:23;;;;;;;9.38;1.80;;;;;;;0.35;100.00;100888.69;5038724;28;20057;-52
2024/01/15 10:54:52;;;;;;;6.00;1.25;;;;;;;0.39;100.00;100891.69;5048946;28;20060;-52
2024/01/15 10:57:22;;;;;;;5.20;1.73;;;;;;;0.40;100.00;100882.41;5032627;28;20053;-48
2024/01/15 10:59:49;;;;;;;8.90;2.33;;;;;;;0.44;100.00;100884.34;5050084;28;20507;-52
2024/01/15 11:02:17;;;;;;;7.07;2.17;;;;;;;0.48;100.00;100881.84;5049749;28;20064;-53
2024/01/15 11:04:44;;;;;;;8.98;2.78;;;;;;;0.51;100.00;100879.41;5050073;28;20045;-52
2024/01/15 11:07:13;;;;;;;10.15;3.28;;;;;;;0.55;100.00;100885.94;5037314;28;20053;-49
2024/01/15 11:09:41;;;;;;;9.77;2.50;;;;;;;0.58;100.00;100890.81;5044373;28;20057;-52
2024/01/15 11:12:13;;;;;;;7.07;2.05;;;;;;;0.60;100.00;100883.22;5050013;28;20080;-52
2024/01/15 11:14:45;;;;;;;4.65;2.30;;;;;;;0.65;100.00;100892.44;5038107;28;20073;-51
2024/01/15 11:17:13;;;;;;;6.63;2.13;;;;;;;0.67;100.00;100880.19;5049561;28;20080;-53
2024/01/15 11:19:51;;;;;;;9.43;2.58;;;;;;;0.71;100.00;100883.19;5050371;28;20461;-52
2024/01/15 11:22:32;;;;;;;13.13;4.88;;;;;;;0.75;100.00;100884.25;5049322;28;20052;-49
2024/01/15 11:25:19;;;;;;;9.32;3.05;;;;;;;0.76;100.00;100875.00;5049982;28;20410;-53